createdAt,value
2018-08-23T00:01:19.765Z,34.83
2018-08-23T00:03:48.097Z,32.90
2018-08-23T00:06:16.386Z,32.57
2018-08-23T00:08:48.348Z,32.63
2018-08-23T00:11:19.206Z,33.23
2018-08-23T00:13:47.537Z,36.73
2018-08-23T00:16:15.790Z,33.00
2018-08-23T00:18:44.161Z,31.50
2018-08-23T00:21:17.690Z,32.43
2018-08-23T00:23:52.239Z,34.23
2018-08-23T00:26:20.508Z,31.70
2018-08-23T00:28:48.773Z,33.20
2018-08-23T00:31:17.006Z,33.80
2018-08-23T00:33:45.272Z,29.00
2018-08-23T00:36:13.571Z,38.00
2018-08-23T00:38:41.809Z,32.97
2018-08-23T00:41:10.069Z,35.67
2018-08-23T00:43:39.176Z,33.27
2018-08-23T00:46:22.013Z,34.67
2018-08-23T00:48:50.290Z,34.40
2018-08-23T00:51:20.263Z,35.97
2018-08-23T00:53:54.032Z,34.20
2018-08-23T00:56:23.001Z,40.80
2018-08-23T00:58:55.762Z,34.10
2018-08-23T01:01:24.043Z,40.30
2018-08-23T01:03:52.264Z,38.77
2018-08-23T01:06:22.558Z,31.13
2018-08-23T01:08:50.879Z,34.80
2018-08-23T01:11:19.143Z,34.23
2018-08-23T01:13:47.538Z,32.97
2018-08-23T01:16:16.269Z,31.57
2018-08-23T01:18:44.565Z,38.00
2018-08-23T01:21:12.854Z,35.67
2018-08-23T01:23:42.809Z,37.40
2018-08-23T01:26:11.031Z,44.17
2018-08-23T01:28:39.306Z,42.03
2018-08-23T01:31:21.754Z,44.77
2018-08-23T01:33:53.190Z,40.97
2018-08-23T01:36:25.686Z,37.43
2018-08-23T01:38:53.929Z,41.03
2018-08-23T01:41:22.196Z,39.83
2018-08-23T01:43:50.468Z,42.40
2018-08-23T01:46:18.873Z,35.40
2018-08-23T01:48:50.605Z,45.63
2018-08-23T01:51:18.912Z,44.53
2018-08-23T01:53:48.974Z,44.80
2018-08-23T01:56:17.843Z,41.67
2018-08-23T01:58:46.140Z,41.37
2018-08-23T02:01:17.442Z,47.53
2018-08-23T02:03:46.055Z,47.17
2018-08-23T02:06:14.820Z,56.33
2018-08-23T02:08:43.800Z,43.03
2018-08-23T02:11:12.104Z,45.03
2018-08-23T02:13:40.338Z,44.83
2018-08-23T02:16:08.607Z,42.37
2018-08-23T02:18:36.933Z,45.33
2018-08-23T02:21:10.997Z,43.00
2018-08-23T02:23:52.121Z,41.47
2018-08-23T02:26:20.370Z,42.87
2018-08-23T02:28:49.720Z,41.40
2018-08-23T02:31:17.977Z,42.57
2018-08-23T02:33:46.181Z,45.80
2018-08-23T02:36:17.976Z,44.13
2018-08-23T02:38:47.933Z,44.20
2018-08-23T02:41:16.729Z,43.17
2018-08-23T02:43:45.533Z,49.53
2018-08-23T02:46:13.869Z,44.93
2018-08-23T02:48:42.148Z,36.67
2018-08-23T02:51:10.437Z,45.33
2018-08-23T02:53:53.275Z,42.77
2018-08-23T02:56:22.265Z,43.40
2018-08-23T02:59:00.836Z,41.40
2018-08-23T03:01:31.753Z,39.90
2018-08-23T03:04:07.783Z,43.60
2018-08-23T03:07:12.660Z,41.10
2018-08-23T03:09:44.986Z,43.43
2018-08-23T03:12:17.244Z,39.27
2018-08-23T03:14:45.923Z,37.83
2018-08-23T03:17:18.150Z,40.63
2018-08-23T03:20:04.021Z,42.10
2018-08-23T03:22:33.387Z,45.80
2018-08-23T03:25:04.358Z,37.60
2018-08-23T03:27:32.813Z,33.10
2018-08-23T03:30:02.026Z,40.40
2018-08-23T03:32:30.742Z,39.97
2018-08-23T03:34:59.591Z,38.50
2018-08-23T03:37:28.065Z,37.33
2018-08-23T03:39:56.561Z,34.70
2018-08-23T03:42:25.272Z,37.97
2018-08-23T03:44:54.593Z,43.40
2018-08-23T03:47:23.093Z,40.20
2018-08-23T03:49:51.470Z,38.80
2018-08-23T03:52:38.488Z,42.20
2018-08-23T03:55:07.819Z,39.33
2018-08-23T03:57:41.337Z,40.03
2018-08-23T04:00:09.585Z,42.40
2018-08-23T04:02:37.968Z,42.13
2018-08-23T04:05:13.380Z,42.03
2018-08-23T04:07:42.792Z,41.20
2018-08-23T04:10:11.047Z,43.50
2018-08-23T04:12:40.701Z,42.47
2018-08-23T04:15:26.944Z,42.20
2018-08-23T04:17:55.104Z,41.50
2018-08-23T04:20:23.324Z,40.90
2018-08-23T04:22:51.589Z,48.67
2018-08-23T04:25:19.782Z,43.77
2018-08-23T04:27:48.075Z,49.53
2018-08-23T04:30:16.423Z,48.03
2018-08-23T04:32:47.777Z,49.63
2018-08-23T04:35:29.225Z,45.47
2018-08-23T04:37:57.520Z,46.80
2018-08-23T04:40:25.793Z,50.73
2018-08-23T04:42:54.088Z,50.80
2018-08-23T04:45:26.243Z,53.27
2018-08-23T04:48:00.094Z,52.03
2018-08-23T04:50:28.403Z,50.27
2018-08-23T04:52:56.625Z,49.07
2018-08-23T04:55:25.490Z,50.20
2018-08-23T04:57:53.893Z,48.53
2018-08-23T05:00:22.185Z,50.40
2018-08-23T05:02:50.452Z,49.60
2018-08-23T05:05:18.794Z,50.97
2018-08-23T05:07:47.358Z,51.00
2018-08-23T05:10:15.700Z,47.50
2018-08-23T05:12:43.944Z,45.73
2018-08-23T05:15:12.222Z,50.13
2018-08-23T05:17:40.558Z,51.70
2018-08-23T05:20:09.134Z,47.77
2018-08-23T05:22:37.667Z,48.43
2018-08-23T05:25:13.604Z,45.37
2018-08-23T05:27:58.639Z,46.07
2018-08-23T05:30:28.102Z,46.27
2018-08-23T05:33:12.417Z,48.37
2018-08-23T05:35:40.745Z,48.70
2018-08-23T05:38:09.620Z,43.03
2018-08-23T05:40:43.330Z,49.57
2018-08-23T05:43:11.917Z,52.77
2018-08-23T05:45:45.950Z,47.33
2018-08-23T05:48:20.379Z,47.63
2018-08-23T05:50:48.636Z,49.73
2018-08-23T05:53:17.909Z,42.97
2018-08-23T05:55:48.594Z,47.03
2018-08-23T05:58:19.662Z,47.03
2018-08-23T06:00:48.244Z,46.43
2018-08-23T06:03:16.878Z,46.10
2018-08-23T06:05:46.458Z,44.60
2018-08-23T06:08:14.866Z,45.30
2018-08-23T06:10:45.577Z,42.73
2018-08-23T06:13:14.382Z,45.53
2018-08-23T06:15:47.546Z,45.20
2018-08-23T06:18:17.490Z,44.80
2018-08-23T06:20:45.737Z,42.57
2018-08-23T06:23:14.626Z,41.70
2018-08-23T06:25:43.339Z,44.67
2018-08-23T06:28:20.205Z,43.40
2018-08-23T06:30:48.520Z,40.53
2018-08-23T06:33:34.003Z,40.30
2018-08-23T06:36:02.643Z,43.23
2018-08-23T06:38:31.668Z,43.07
2018-08-23T06:41:01.774Z,41.80
2018-08-23T06:43:30.831Z,42.30
2018-08-23T06:45:59.964Z,42.83
2018-08-23T06:48:28.279Z,39.63
2018-08-23T06:50:57.702Z,42.13
2018-08-23T06:53:31.951Z,36.77
2018-08-23T06:56:00.238Z,36.07
2018-08-23T06:58:28.523Z,36.43
2018-08-23T07:00:56.755Z,37.10
2018-08-23T07:03:25.104Z,35.33
2018-08-23T07:05:53.405Z,36.83
2018-08-23T07:08:23.146Z,33.63
2018-08-23T07:11:03.454Z,36.63
2018-08-23T07:13:31.788Z,34.63
2018-08-23T07:16:00.767Z,39.13
2018-08-23T07:18:31.115Z,30.23
2018-08-23T07:20:59.393Z,31.17
2018-08-23T07:23:34.221Z,32.07
2018-08-23T07:26:06.882Z,30.30
2018-08-23T07:28:36.973Z,30.03
2018-08-23T07:31:05.249Z,27.63
2018-08-23T07:33:34.732Z,30.90
2018-08-23T07:36:17.321Z,31.70
2018-08-23T07:38:46.870Z,27.83
2018-08-23T07:41:15.141Z,30.27
2018-08-23T07:43:43.501Z,28.73
2018-08-23T07:46:11.782Z,27.73
2018-08-23T07:48:40.073Z,27.83
2018-08-23T07:51:16.350Z,28.97
2018-08-23T07:53:44.644Z,35.83
2018-08-23T07:56:18.118Z,28.27
2018-08-23T07:58:47.753Z,27.07
2018-08-23T08:01:15.981Z,29.23
2018-08-23T08:03:44.219Z,27.93
2018-08-23T08:06:16.701Z,28.77
2018-08-23T08:08:45.098Z,29.10
2018-08-23T08:11:13.306Z,29.20
2018-08-23T08:13:41.634Z,33.93
2018-08-23T08:16:16.710Z,30.23
2018-08-23T08:18:44.936Z,30.07
2018-08-23T08:21:16.602Z,29.97
2018-08-23T08:23:47.771Z,31.80
2018-08-23T08:26:16.151Z,32.20
2018-08-23T08:28:44.397Z,36.40
2018-08-23T08:31:12.759Z,32.10
2018-08-23T08:33:41.049Z,33.70
2018-08-23T08:36:09.309Z,37.90
2018-08-23T08:38:37.584Z,37.63
2018-08-23T08:41:05.796Z,38.40
2018-08-23T08:43:34.075Z,40.60
2018-08-23T08:46:02.365Z,40.57
2018-08-23T08:48:32.813Z,39.97
2018-08-23T08:51:17.155Z,37.23
2018-08-23T08:53:46.083Z,40.30
2018-08-23T08:56:14.430Z,38.83
2018-08-23T08:58:43.190Z,42.07
2018-08-23T09:01:11.434Z,40.90
2018-08-23T09:03:39.693Z,40.47
2018-08-23T09:06:10.293Z,39.43
2018-08-23T09:08:39.220Z,38.60
2018-08-23T09:11:07.599Z,40.67
2018-08-23T09:13:41.248Z,37.97
2018-08-23T09:16:10.634Z,37.23
2018-08-23T09:18:44.654Z,38.53
2018-08-23T09:21:12.887Z,40.77
2018-08-23T09:23:41.627Z,36.63
2018-08-23T09:26:09.867Z,38.67
2018-08-23T09:28:38.125Z,37.27
2018-08-23T09:31:06.545Z,42.00
2018-08-23T09:33:34.884Z,40.60
2018-08-23T09:36:03.159Z,41.00
2018-08-23T09:38:31.462Z,37.80
2018-08-23T09:40:59.765Z,39.47
2018-08-23T09:43:28.002Z,35.50
2018-08-23T09:45:56.360Z,36.00
2018-08-23T09:48:24.600Z,34.03
2018-08-23T09:50:52.929Z,33.97
2018-08-23T09:53:24.332Z,37.00
2018-08-23T09:55:53.496Z,34.23
2018-08-23T09:58:27.071Z,31.60
2018-08-23T10:01:00.637Z,30.13
2018-08-23T10:03:34.900Z,30.03
2018-08-23T10:06:08.814Z,30.27
2018-08-23T10:08:42.566Z,27.97
2018-08-23T10:11:19.828Z,28.00
2018-08-23T10:13:53.373Z,30.00
2018-08-23T10:16:27.058Z,26.97
2018-08-23T10:18:58.376Z,27.70
2018-08-23T10:21:31.967Z,27.07
2018-08-23T10:24:25.840Z,26.73
2018-08-23T10:26:54.530Z,26.23
2018-08-23T10:29:22.794Z,25.37
2018-08-23T10:31:51.155Z,25.83
2018-08-23T10:34:19.388Z,25.50
2018-08-23T10:36:47.666Z,23.77
2018-08-23T10:39:15.909Z,22.47
2018-08-23T10:41:44.475Z,34.90
2018-08-23T10:44:12.851Z,25.30
2018-08-23T10:46:46.501Z,25.40
2018-08-23T10:49:14.813Z,26.03
2018-08-23T10:51:43.120Z,26.80
2018-08-23T10:54:11.973Z,26.37
2018-08-23T10:56:40.299Z,25.83
2018-08-23T10:59:08.723Z,24.90
2018-08-23T11:01:36.993Z,26.07
2018-08-23T11:04:07.111Z,25.50
2018-08-23T11:06:36.372Z,23.40
2018-08-23T11:09:11.721Z,25.87
2018-08-23T11:11:39.986Z,26.27
2018-08-23T11:14:13.434Z,22.63
2018-08-23T11:16:47.235Z,23.77
2018-08-23T11:19:20.870Z,24.00
2018-08-23T11:21:49.181Z,22.60
2018-08-23T11:24:17.417Z,24.60
2018-08-23T11:26:45.678Z,24.00
2018-08-23T11:29:13.985Z,21.10
2018-08-23T11:31:42.207Z,22.37
2018-08-23T11:34:10.475Z,21.63
2018-08-23T11:36:38.741Z,21.50
2018-08-23T11:39:08.454Z,22.80
2018-08-23T11:41:36.685Z,21.60
2018-08-23T11:44:04.986Z,21.97
2018-08-23T11:46:33.266Z,22.20
2018-08-23T11:49:01.701Z,21.20
2018-08-23T11:51:29.901Z,20.30
2018-08-23T11:53:58.428Z,21.93
2018-08-23T11:56:26.605Z,21.27
2018-08-23T11:58:54.876Z,22.53
2018-08-23T12:01:23.191Z,23.87
2018-08-23T12:03:51.434Z,22.43
2018-08-23T12:06:19.638Z,22.17
2018-08-23T12:08:47.862Z,23.03
2018-08-23T12:11:16.110Z,20.53
2018-08-23T12:13:48.010Z,21.53
2018-08-23T12:16:16.290Z,22.07
2018-08-23T12:18:44.549Z,22.53
2018-08-23T12:21:12.815Z,20.03
2018-08-23T12:23:41.016Z,20.80
2018-08-23T12:26:09.305Z,21.27
2018-08-23T12:28:42.932Z,19.33
2018-08-23T12:31:11.230Z,19.90
2018-08-23T12:33:39.520Z,20.10
2018-08-23T12:36:08.935Z,18.33
2018-08-23T12:38:42.715Z,20.17
2018-08-23T12:41:16.196Z,18.10
2018-08-23T12:43:47.664Z,17.90
2018-08-23T12:46:17.640Z,16.50
2018-08-23T12:48:46.238Z,16.87
2018-08-23T12:51:14.578Z,15.73
2018-08-23T12:53:42.947Z,15.97
2018-08-23T12:56:11.314Z,15.57
2018-08-23T12:58:39.592Z,13.97
2018-08-23T13:01:07.886Z,12.10
2018-08-23T13:03:36.288Z,12.10
2018-08-23T13:06:04.541Z,10.03
2018-08-23T13:08:32.856Z,11.27
2018-08-23T13:11:01.182Z,10.20
2018-08-23T13:13:29.528Z,10.07
2018-08-23T13:15:57.813Z,11.20
2018-08-23T13:18:26.175Z,12.17
2018-08-23T13:20:54.506Z,9.83
2018-08-23T13:23:22.799Z,9.93
2018-08-23T13:25:57.259Z,9.27
2018-08-23T13:28:26.655Z,10.87
2018-08-23T13:30:55.079Z,9.37
2018-08-23T13:33:24.281Z,8.97
2018-08-23T13:35:52.473Z,8.67
2018-08-23T13:38:20.791Z,7.90
2018-08-23T13:40:49.374Z,9.27
2018-08-23T13:43:17.672Z,9.83
2018-08-23T13:45:45.921Z,9.60
2018-08-23T13:48:14.191Z,10.93
2018-08-23T13:50:42.446Z,9.60
2018-08-23T13:53:10.665Z,9.83
2018-08-23T13:55:38.870Z,10.83
2018-08-23T13:58:07.165Z,9.20
2018-08-23T14:00:40.569Z,8.50
2018-08-23T14:03:09.521Z,9.10
2018-08-23T14:05:38.690Z,8.93
2018-08-23T14:08:07.005Z,6.20
2018-08-23T14:10:35.426Z,6.90
2018-08-23T14:13:03.950Z,6.90
2018-08-23T14:15:37.618Z,5.77
2018-08-23T14:18:05.825Z,4.80
2018-08-23T14:20:34.133Z,5.00
2018-08-23T14:23:02.366Z,3.90
2018-08-23T14:25:30.727Z,3.90
2018-08-23T14:27:59.036Z,6.17
2018-08-23T14:30:27.369Z,3.60
2018-08-23T14:32:55.724Z,4.47
2018-08-23T14:35:24.042Z,6.27
2018-08-23T14:37:52.373Z,4.40
2018-08-23T14:40:20.725Z,7.13
2018-08-23T14:42:48.976Z,4.90
2018-08-23T14:45:21.498Z,3.37
2018-08-23T14:47:55.402Z,3.53
2018-08-23T14:50:23.614Z,5.23
2018-08-23T14:52:51.827Z,8.57
2018-08-23T14:55:25.390Z,4.23
2018-08-23T14:57:53.737Z,2.87
2018-08-23T15:00:22.070Z,3.20
2018-08-23T15:02:50.374Z,3.07
2018-08-23T15:05:18.650Z,3.27
2018-08-23T15:07:47.052Z,13.77
2018-08-23T15:10:15.275Z,4.40
2018-08-23T15:12:43.527Z,6.73
2018-08-23T15:15:11.881Z,4.93
2018-08-23T15:17:40.255Z,4.47
2018-08-23T15:20:08.539Z,4.37
2018-08-23T15:22:36.834Z,5.27
2018-08-23T15:25:05.213Z,4.23
2018-08-23T15:27:34.345Z,6.13
2018-08-23T15:30:03.911Z,5.30
2018-08-23T15:32:32.120Z,4.30
2018-08-23T15:35:00.445Z,7.73
2018-08-23T15:37:28.778Z,4.53
2018-08-23T15:39:57.014Z,4.83
2018-08-23T15:42:25.858Z,2.43
2018-08-23T15:44:54.130Z,2.90
2018-08-23T15:47:22.362Z,4.13
2018-08-23T15:49:50.641Z,2.73
2018-08-23T15:52:18.929Z,2.57
2018-08-23T15:54:47.341Z,1.80
2018-08-23T15:57:15.570Z,2.33
2018-08-23T15:59:43.846Z,5.33
2018-08-23T16:02:12.103Z,2.70
2018-08-23T16:04:40.409Z,3.23
2018-08-23T16:07:08.668Z,5.60
2018-08-23T16:09:36.904Z,2.93
2018-08-23T16:12:05.129Z,4.43
2018-08-23T16:14:33.397Z,3.40
2018-08-23T16:17:07.194Z,3.43
2018-08-23T16:19:40.860Z,5.87
2018-08-23T16:22:09.655Z,4.73
2018-08-23T16:24:37.886Z,10.50
2018-08-23T16:27:06.613Z,6.00
2018-08-23T16:29:34.985Z,4.27
2018-08-23T16:32:03.326Z,5.73
2018-08-23T16:34:31.513Z,5.63
2018-08-23T16:36:59.764Z,9.27
2018-08-23T16:39:28.081Z,7.47
2018-08-23T16:41:56.478Z,7.70
2018-08-23T16:44:24.798Z,7.27
2018-08-23T16:46:53.031Z,11.73
2018-08-23T16:49:21.320Z,8.00
2018-08-23T16:51:49.578Z,4.20
2018-08-23T16:54:17.854Z,7.13
2018-08-23T16:56:46.155Z,6.43
2018-08-23T16:59:14.433Z,7.17
2018-08-23T17:01:42.776Z,4.23
2018-08-23T17:04:11.097Z,5.80
2018-08-23T17:06:39.460Z,4.53
2018-08-23T17:09:08.545Z,5.13
2018-08-23T17:11:36.939Z,4.20
2018-08-23T17:14:05.167Z,6.30
2018-08-23T17:16:38.937Z,2.83
2018-08-23T17:19:07.285Z,4.40
2018-08-23T17:21:35.598Z,6.17
2018-08-23T17:24:03.833Z,3.80
2018-08-23T17:26:32.196Z,3.60
2018-08-23T17:29:00.470Z,3.57
2018-08-23T17:31:28.825Z,7.10
2018-08-23T17:33:57.094Z,6.33
2018-08-23T17:36:25.414Z,5.80
2018-08-23T17:38:53.647Z,4.10
2018-08-23T17:41:21.952Z,7.40
2018-08-23T17:43:50.263Z,5.47
2018-08-23T17:46:18.557Z,4.50
2018-08-23T17:48:46.824Z,5.70
2018-08-23T17:51:15.017Z,4.27
2018-08-23T17:53:43.251Z,4.53
2018-08-23T17:56:11.517Z,3.50
2018-08-23T17:58:39.784Z,4.10
2018-08-23T18:01:08.170Z,2.20
2018-08-23T18:03:36.466Z,3.27
2018-08-23T18:06:04.718Z,3.30
2018-08-23T18:08:32.986Z,3.13
2018-08-23T18:11:01.261Z,2.33
2018-08-23T18:13:29.543Z,3.33
2018-08-23T18:16:02.982Z,2.30
2018-08-23T18:18:31.270Z,4.83
2018-08-23T18:20:59.582Z,2.80
2018-08-23T18:23:27.795Z,3.40
2018-08-23T18:25:56.019Z,5.97
2018-08-23T18:28:24.398Z,2.70
2018-08-23T18:30:52.666Z,2.33
2018-08-23T18:33:20.992Z,4.53
2018-08-23T18:35:49.210Z,1.80
2018-08-23T18:38:17.489Z,2.30
2018-08-23T18:40:45.753Z,3.30
2018-08-23T18:43:14.061Z,1.43
2018-08-23T18:45:42.474Z,1.43
2018-08-23T18:48:10.764Z,1.90
2018-08-23T18:50:38.982Z,2.10
2018-08-23T18:53:07.253Z,2.57
2018-08-23T18:55:35.508Z,3.10
2018-08-23T18:58:03.722Z,2.67
2018-08-23T19:00:31.930Z,2.80
2018-08-23T19:03:00.151Z,2.47
2018-08-23T19:05:28.369Z,3.33
2018-08-23T19:07:56.649Z,2.73
2018-08-23T19:10:24.849Z,4.97
2018-08-23T19:12:53.224Z,3.77
2018-08-23T19:15:26.830Z,3.50
2018-08-23T19:17:55.164Z,4.00
2018-08-23T19:20:23.417Z,3.47
2018-08-23T19:22:51.756Z,4.13
2018-08-23T19:25:19.970Z,3.43
2018-08-23T19:27:48.232Z,4.00
2018-08-23T19:30:16.438Z,4.30
2018-08-23T19:32:44.641Z,6.83
2018-08-23T19:35:12.886Z,5.10
2018-08-23T19:37:41.168Z,7.33
2018-08-23T19:40:09.390Z,7.30
2018-08-23T19:42:37.614Z,9.57
2018-08-23T19:45:05.885Z,14.57
2018-08-23T19:47:39.625Z,9.40
2018-08-23T19:50:08.815Z,10.10
2018-08-23T19:52:37.126Z,9.40
2018-08-23T19:55:05.354Z,13.83
2018-08-23T19:57:33.575Z,11.00
2018-08-23T20:00:09.535Z,16.37
2018-08-23T20:02:37.745Z,8.87
2018-08-23T20:05:06.217Z,11.10
2018-08-23T20:07:34.474Z,14.40
2018-08-23T20:10:02.815Z,13.77
2018-08-23T20:12:31.123Z,10.20
2018-08-23T20:14:59.418Z,14.70
2018-08-23T20:17:27.666Z,10.50
2018-08-23T20:19:55.886Z,10.37
2018-08-23T20:22:24.113Z,11.73
2018-08-23T20:24:52.383Z,12.37
2018-08-23T20:27:20.730Z,10.57
2018-08-23T20:29:48.985Z,10.27
2018-08-23T20:32:17.340Z,13.57
2018-08-23T20:34:45.580Z,11.03
2018-08-23T20:37:13.824Z,17.93
2018-08-23T20:39:42.112Z,11.03
2018-08-23T20:42:10.290Z,10.43
2018-08-23T20:44:38.518Z,11.47
2018-08-23T20:47:06.827Z,13.33
2018-08-23T20:49:35.045Z,12.10
2018-08-23T20:52:03.317Z,11.30
2018-08-23T20:54:31.626Z,12.50
2018-08-23T20:57:00.291Z,10.07
2018-08-23T20:59:28.522Z,10.93
2018-08-23T21:01:56.737Z,9.93
2018-08-23T21:04:25.045Z,11.50
2018-08-23T21:06:53.326Z,9.90
2018-08-23T21:09:21.595Z,9.70
2018-08-23T21:11:49.807Z,12.10
2018-08-23T21:14:18.086Z,9.43
2018-08-23T21:16:46.391Z,9.03
2018-08-23T21:19:14.662Z,9.80
2018-08-23T21:21:42.876Z,10.87
2018-08-23T21:24:11.085Z,12.30
2018-08-23T21:26:39.349Z,11.40
2018-08-23T21:29:07.673Z,10.47
2018-08-23T21:31:35.906Z,11.13
2018-08-23T21:34:04.186Z,12.77
2018-08-23T21:36:32.414Z,12.27
2018-08-23T21:39:00.690Z,11.57
2018-08-23T21:41:28.964Z,14.80
2018-08-23T21:43:57.185Z,13.43
2018-08-23T21:46:25.433Z,13.40
2018-08-23T21:48:53.677Z,12.60
2018-08-23T21:51:21.890Z,15.83
2018-08-23T21:53:50.288Z,13.53
2018-08-23T21:56:18.469Z,12.40
2018-08-23T21:58:46.757Z,12.90
2018-08-23T22:01:15.016Z,12.40
2018-08-23T22:03:43.234Z,11.20
2018-08-23T22:06:11.451Z,11.37
2018-08-23T22:08:39.738Z,12.33
2018-08-23T22:11:08.103Z,12.60
2018-08-23T22:13:36.351Z,16.40
2018-08-23T22:16:04.595Z,13.03
2018-08-23T22:18:32.832Z,14.37
2018-08-23T22:21:01.114Z,15.70
2018-08-23T22:23:29.390Z,16.63
2018-08-23T22:25:57.609Z,14.20
2018-08-23T22:28:26.113Z,17.40
2018-08-23T22:30:54.426Z,12.90
2018-08-23T22:33:22.637Z,16.17
2018-08-23T22:35:50.924Z,16.77
2018-08-23T22:38:19.192Z,12.40
2018-08-23T22:40:47.428Z,13.07
2018-08-23T22:43:15.637Z,14.10
2018-08-23T22:45:43.856Z,12.23
2018-08-23T22:48:12.117Z,16.20
2018-08-23T22:50:40.366Z,13.20
2018-08-23T22:53:08.570Z,12.80
2018-08-23T22:55:36.829Z,10.90
2018-08-23T22:58:05.320Z,15.10
2018-08-23T23:00:38.945Z,11.67
2018-08-23T23:03:12.667Z,12.60
2018-08-23T23:05:41.022Z,15.17
2018-08-23T23:08:09.741Z,13.67
2018-08-23T23:10:38.886Z,13.70
2018-08-23T23:13:07.141Z,15.03
2018-08-23T23:15:35.396Z,11.70
2018-08-23T23:18:04.040Z,12.60
2018-08-23T23:20:32.254Z,10.87
2018-08-23T23:23:00.477Z,14.37
2018-08-23T23:25:28.736Z,10.90
2018-08-23T23:27:56.956Z,10.30
2018-08-23T23:30:25.273Z,13.40
2018-08-23T23:32:53.512Z,9.83
2018-08-23T23:35:21.793Z,12.90
2018-08-23T23:37:50.020Z,13.17
2018-08-23T23:40:18.304Z,10.03
2018-08-23T23:42:46.521Z,14.10
2018-08-23T23:45:14.813Z,13.90
2018-08-23T23:47:43.034Z,10.80
2018-08-23T23:50:11.243Z,12.53
2018-08-23T23:52:39.459Z,11.37
2018-08-23T23:55:07.673Z,14.37
2018-08-23T23:57:35.917Z,11.40
